Latest Weather Observations for Warrnambool

IDV60801

Issued at 2:12 pm EDT Wednesday 29 January 2020 (issued every 10 minutes, with the page automatically refreshed every 10 minutes)

About weather observations | Map of weather stations | Latest weather observations for VIC | Other Formats
Station Details ID: 090186 Name: WARRNAMBOOL AIRPORT NDB Lat: -38.29 Lon: 142.45 Height: 70.8 m
Data from the previous 72 hours. | See also: Recent months at Warrnambool
Date/Time
EDT
Temp
°C
App
Temp
°C
Dew
Point
°C
Rel
Hum
%
Delta-T
°C
Wind Press
QNH
hPa
Press
MSL
hPa
Rain since
9am
mm
Dir  Spd
km/h
Gust
km/h
Spd
kts
Gust
kts
29/02:00pm 26.8 25.9 14.9 48 7.2 S 13 20 7 11 1015.6 1015.4 0.0
29/01:30pm 26.5 24.5 16.4 53 6.2 SW 22 28 12 15 1015.9 1015.7 0.0
29/01:00pm 27.5 27.3 15.8 48 7.2 W 11 22 6 12 1016.3 1016.1 0.0
29/12:30pm 25.9 25.0 11.3 40 8.3 W 7 11 4 6 1016.7 1016.5 0.0
29/12:00pm 24.6 24.3 13.2 49 6.6 NNW 7 13 4 7 1017.2 1017.0 0.0
29/11:30am 22.9 22.4 12.2 51 6.1 WNW 6 13 3 7 1017.5 1017.3 0.0
29/11:00am 21.5 21.4 13.9 62 4.4 N 7 15 4 8 1017.7 1017.5 0.0
29/10:30am 19.7 19.6 13.4 67 3.6 N 6 13 3 7 1017.9 1017.7 0.0
29/10:00am 18.3 17.7 13.4 73 2.8 N 9 17 5 9 1018.2 1018.0 0.0
29/09:30am 17.5 17.1 14.0 80 2.0 N 9 15 5 8 1018.1 1017.9 0.0
29/09:14am 16.4 16.3 13.9 85 1.4 N 7 13 4 7 1018.1 1017.9 0.0
29/09:00am 15.8 15.4 14.2 90 0.9 N 9 15 5 8 1018.0 1017.8 0.0
29/08:30am 15.0 14.8 14.7 98 0.2 N 9 15 5 8 1017.8 1017.6 0.0
29/08:00am 14.7 14.4 14.4 98 0.2 NNE 9 11 5 6 1017.6 1017.4 0.0
29/07:30am 14.2 13.7 13.9 98 0.2 N 9 11 5 6 1017.5 1017.3 0.0
29/07:00am 13.7 13.4 13.4 98 0.2 NNE 7 9 4 5 1017.4 1017.2 0.0
29/06:30am 13.5 12.8 13.2 98 0.2 N 9 11 5 6 1017.2 1017.0 0.0
29/06:00am 13.1 12.6 12.8 98 0.2 N 7 9 4 5 1016.9 1016.7 0.0
29/05:55am 13.0 12.5 12.7 98 0.2 N 7 9 4 5 1016.8 1016.6 0.0
29/05:30am 13.0 12.5 12.7 98 0.2 NNW 7 9 4 5 1016.8 1016.6 0.0
29/05:00am 12.1 11.3 11.8 98 0.2 N 7 11 4 6 1016.7 1016.5 0.0
29/04:30am 12.4 11.7 12.1 98 0.2 N 7 11 4 6 1017.0 1016.8 0.0
29/04:21am 12.4 11.3 12.1 98 0.2 N 9 11 5 6 1016.9 1016.7 0.0
29/04:00am 10.0 8.3 9.7 98 0.2 N 9 11 5 6 1017.0 1016.8 0.0
29/03:30am 9.6 8.1 9.3 98 0.1 N 7 9 4 5 1016.9 1016.7 0.0
29/03:08am 10.2 8.5 9.9 98 0.2 N 9 9 5 5 1016.9 1016.7 0.0
29/03:00am 10.2 8.5 9.9 98 0.2 N 9 9 5 5 1016.9 1016.7 0.0
29/02:33am 9.7 7.9 9.4 98 0.1 N 9 11 5 6 1016.8 1016.6 0.0
29/02:30am 9.9 8.1 9.6 98 0.2 N 9 11 5 6 1016.8 1016.6 0.0
29/02:00am 10.2 8.5 9.9 98 0.2 N 9 9 5 5 1016.9 1016.7 0.0
29/01:30am 10.7 9.5 10.4 98 0.2 N 7 9 4 5 1017.2 1017.0 0.0
29/01:04am 11.3 9.9 11.0 98 0.2 N 9 11 5 6 1017.5 1017.3 0.0
29/01:00am 11.4 10.1 11.1 98 0.2 N 9 11 5 6 1017.5 1017.3 0.0
29/12:36am 10.8 9.7 10.5 98 0.2 N 7 9 4 5 1017.5 1017.3 0.0
29/12:30am 11.5 10.6 11.2 98 0.2 N 7 9 4 5 1017.7 1017.5 0.0
29/12:00am 11.5 11.1 11.2 98 0.2 N 4 6 2 3 1017.5 1017.3 0.0
 
Date/Time
EDT
Temp
°C
App
Temp
°C
Dew
Point
°C
Rel
Hum
%
Delta-T
°C
Wind Press
QNH
hPa
Press
MSL
hPa
Rain since
9am
mm
Dir  Spd
km/h
Gust
km/h
Spd
kts
Gust
kts
28/11:55pm 11.7 11.0 11.4 98 0.2 N 6 6 3 3 1017.6 1017.4 0.0
28/11:30pm 12.0 12.5 11.5 97 0.3 CALM 0 6 0 3 1017.7 1017.5 0.0
28/11:27pm 11.9 12.3 11.3 96 0.3 CALM 0 0 0 0 1017.7 1017.5 0.0
28/11:00pm 12.4 13.0 11.8 96 0.3 CALM 0 0 0 0 1017.9 1017.7 0.0
28/10:30pm 12.6 13.1 11.7 94 0.5 CALM 0 6 0 3 1017.9 1017.7 0.0
28/10:00pm 14.5 13.9 13.4 93 0.6 SW 9 11 5 6 1017.7 1017.5 0.0
28/09:38pm 14.8 14.5 13.3 91 0.8 SSW 7 11 4 6 1017.6 1017.4 0.0
28/09:30pm 15.1 14.5 13.5 90 0.9 SSW 9 11 5 6 1017.6 1017.4 0.0
28/09:27pm 15.1 14.5 13.5 90 0.9 SSW 9 13 5 7 1017.5 1017.3 0.0
28/09:00pm 16.0 14.7 13.8 87 1.2 SW 13 17 7 9 1017.2 1017.0 0.0
28/08:30pm 16.7 14.1 13.8 83 1.6 SW 20 28 11 15 1017.1 1016.9 0.0
28/08:00pm 17.7 14.3 13.8 78 2.2 SW 24 28 13 15 1016.7 1016.5 0.0
28/07:30pm 18.3 15.8 14.0 76 2.5 SW 20 30 11 16 1016.5 1016.3 0.0
28/07:00pm 18.5 15.3 14.2 76 2.5 SW 24 28 13 15 1016.1 1015.9 0.0
28/06:30pm 18.8 14.7 13.9 73 2.8 SW 28 35 15 19 1016.2 1016.0 0.0
28/06:00pm 18.8 14.6 13.6 72 3.0 SW 28 35 15 19 1016.0 1015.8 0.0
28/05:30pm 19.6 15.2 14.0 70 3.2 SW 30 41 16 22 1016.0 1015.8 0.0
28/05:00pm 19.7 14.8 13.6 68 3.5 SW 32 39 17 21 1016.0 1015.8 0.0
28/04:30pm 20.4 15.5 13.6 65 3.9 SSW 32 43 17 23 1016.0 1015.8 0.0
28/04:00pm 21.0 16.3 14.2 65 4.0 SW 32 43 17 23 1016.1 1015.9 0.0
28/03:30pm 20.7 15.7 14.1 66 3.8 SW 33 46 18 25 1016.1 1015.9 0.0
28/03:00pm 20.9 15.8 13.8 64 4.1 SW 33 44 18 24 1016.3 1016.1 0.0
28/02:30pm 21.1 16.5 14.7 67 3.8 SW 32 41 17 22 1016.5 1016.3 0.0
28/02:00pm 21.6 17.9 15.0 66 3.9 SW 28 35 15 19 1016.4 1016.2 0.0
28/01:30pm 21.1 16.8 14.3 65 4.0 SW 30 39 16 21 1016.4 1016.2 0.0
28/01:00pm 21.7 18.7 14.8 65 4.1 SW 24 33 13 18 1016.5 1016.3 0.0
28/12:30pm 20.9 17.1 13.6 63 4.2 SW 26 32 14 17 1016.5 1016.3 0.0
28/12:00pm 21.0 17.0 14.2 65 4.0 SSW 28 35 15 19 1016.6 1016.4 0.0
28/11:30am 21.1 18.9 14.3 65 4.0 WSW 19 30 10 16 1016.7 1016.5 0.0
28/11:00am 20.1 18.0 13.6 66 3.7 W 17 24 9 13 1016.6 1016.4 0.0
28/10:30am 19.0 16.6 12.7 67 3.5 W 17 26 9 14 1016.6 1016.4 0.0
28/10:00am 18.1 16.6 13.2 73 2.8 W 13 24 7 13 1016.7 1016.5 0.0
28/09:30am 17.5 16.4 14.4 82 1.8 WNW 13 20 7 11 1016.7 1016.5 0.0
28/09:00am 15.3 14.2 14.3 94 0.6 NW 13 17 7 9 1016.3 1016.1 0.0
28/08:30am 14.2 13.0 13.9 98 0.2 NW 13 15 7 8 1016.3 1016.1 0.0
28/08:00am 12.5 11.1 12.2 98 0.2 NW 11 15 6 8 1016.2 1016.0 0.0
28/07:30am 11.3 9.5 11.0 98 0.2 NW 11 15 6 8 1015.7 1015.5 0.0
28/07:00am 10.3 7.5 10.0 98 0.2 NW 15 15 8 8 1015.6 1015.4 0.0
28/06:30am 10.5 8.5 10.2 98 0.2 NW 11 13 6 7 1015.2 1015.0 0.0
28/06:00am 11.3 9.5 11.0 98 0.2 WNW 11 15 6 8 1015.1 1014.9 0.0
28/05:30am 9.9 8.1 9.6 98 0.2 NNW 9 11 5 6 1014.8 1014.6 0.0
28/05:00am 8.9 6.9 8.6 98 0.1 NNW 9 11 5 6 1015.0 1014.8 0.0
28/04:30am 8.4 6.3 8.1 98 0.1 N 9 11 5 6 1015.2 1015.0 0.0
28/04:00am 8.4 6.3 8.1 98 0.1 N 9 11 5 6 1015.1 1014.9 0.0
28/03:30am 8.6 6.5 8.3 98 0.1 N 9 11 5 6 1015.5 1015.3 0.0
28/03:00am 8.3 6.5 8.0 98 0.1 NW 7 11 4 6 1016.3 1016.1 0.0
28/02:30am 8.7 6.6 8.4 98 0.1 N 9 9 5 5 1015.8 1015.6 0.0
28/02:00am 9.0 7.0 8.6 97 0.2 N 9 11 5 6 1015.9 1015.7 0.0
28/01:30am 9.6 7.7 9.1 97 0.2 N 9 11 5 6 1016.2 1016.0 0.0
28/01:00am 10.0 8.6 9.4 96 0.3 N 7 9 4 5 1016.4 1016.2 0.0
28/12:30am 9.8 8.4 9.0 95 0.4 N 6 7 3 4 1016.8 1016.6 0.0
28/12:00am 10.3 8.9 9.4 94 0.4 N 7 9 4 5 1016.5 1016.3 0.0
 
Date/Time
EDT
Temp
°C
App
Temp
°C
Dew
Point
°C
Rel
Hum
%
Delta-T
°C
Wind Press
QNH
hPa
Press
MSL
hPa
Rain since
9am
mm
Dir  Spd
km/h
Gust
km/h
Spd
kts
Gust
kts
27/11:30pm 10.7 9.3 9.6 93 0.6 NNE 7 9 4 5 1016.7 1016.5 0.0
27/11:00pm 10.8 9.6 9.4 91 0.7 NW 6 9 3 5 1017.1 1016.9 0.0
27/10:30pm 10.9 10.6 8.8 87 1.0 CALM 0 0 0 0 1017.0 1016.8 0.0
27/10:00pm 13.0 13.3 10.9 87 1.1 CALM 0 0 0 0 1016.8 1016.6 0.0
27/09:30pm 13.7 12.8 11.2 85 1.3 SSW 7 9 4 5 1016.3 1016.1 0.0
27/09:00pm 14.5 12.4 11.3 81 1.7 SSW 13 15 7 8 1016.3 1016.1 0.0
27/08:30pm 16.3 13.7 11.9 75 2.4 SSW 17 20 9 11 1016.1 1015.9 0.0
27/08:00pm 17.2 14.1 11.7 70 3.0 SW 19 22 10 12 1016.0 1015.8 0.0
27/07:30pm 17.7 14.2 11.0 65 3.6 SSW 20 26 11 14 1015.6 1015.4 0.0
27/07:00pm 18.2 14.2 11.7 66 3.6 SSW 24 30 13 16 1015.8 1015.6 0.0
27/06:30pm 18.7 14.7 11.8 64 3.8 SSW 24 32 13 17 1015.8 1015.6 0.0
27/06:00pm 19.1 15.1 11.7 62 4.1 SSW 24 32 13 17 1015.7 1015.5 0.0
27/05:30pm 19.8 15.7 11.6 59 4.5 SSW 24 32 13 17 1015.7 1015.5 0.0
27/05:00pm 19.8 15.6 12.3 62 4.2 SSW 26 33 14 18 1015.7 1015.5 0.0
27/04:30pm 20.0 15.6 11.8 59 4.6 SSW 26 39 14 21 1015.5 1015.3 0.0
27/04:00pm 20.5 16.3 11.2 55 5.1 SSW 24 32 13 17 1015.5 1015.3 0.0
27/03:30pm 20.2 15.9 10.6 54 5.2 SSW 24 30 13 16 1015.9 1015.7 0.0
27/03:00pm 20.1 15.2 9.9 52 5.5 SW 26 37 14 20 1016.2 1016.0 0.0
27/02:30pm 19.4 15.2 11.2 59 4.5 SW 24 32 13 17 1016.3 1016.1 0.0
27/02:00pm 20.3 15.1 10.1 52 5.5 SSW 28 35 15 19 1016.3 1016.1 0.0
27/01:30pm 20.2 15.1 10.6 54 5.2 SW 28 35 15 19 1016.5 1016.3 0.0
27/01:00pm 19.6 13.6 10.0 54 5.1 SSW 32 41 17 22 1016.7 1016.5 0.0
27/12:30pm 20.1 13.9 9.4 50 5.7 SW 32 37 17 20 1016.5 1016.3 0.0
27/12:00pm 19.3 15.3 10.3 56 4.8 SW 22 30 12 16 1016.4 1016.2 0.0
27/11:30am 19.3 15.8 10.8 58 4.6 SW 20 32 11 17 1016.2 1016.0 0.0
27/11:00am 18.9 15.4 11.0 60 4.3 W 20 28 11 15 1016.5 1016.3 0.0
27/10:30am 18.5 16.4 12.5 68 3.4 W 15 24 8 13 1016.6 1016.4 0.0
27/10:00am 17.9 15.2 11.7 67 3.4 W 17 26 9 14 1016.8 1016.6 0.0
27/09:30am 17.1 13.5 12.0 72 2.8 W 22 30 12 16 1017.1 1016.9 0.0
27/09:00am 14.7 12.9 13.2 91 0.8 WNW 15 20 8 11 1016.7 1016.5 0.0
27/08:30am 12.8 11.1 12.5 98 0.2 WNW 13 17 7 9 1016.5 1016.3 0.0
27/08:00am 11.2 9.4 10.9 98 0.2 NW 11 15 6 8 1016.1 1015.9 0.0
27/07:30am 10.4 8.0 10.1 98 0.2 NW 13 17 7 9 1015.7 1015.5 0.0
27/07:00am 9.6 7.4 9.3 98 0.1 WNW 11 17 6 9 1015.8 1015.6 0.0
27/06:30am 8.7 6.2 8.4 98 0.1 N 11 13 6 7 1014.7 1014.5 0.0
27/06:00am 9.6 6.6 9.3 98 0.1 NW 15 17 8 9 1015.2 1015.0 0.0
27/05:30am 10.4 8.0 10.1 98 0.2 NW 13 15 7 8 1015.3 1015.1 0.0
27/05:00am 9.5 7.3 9.2 98 0.1 NW 11 13 6 7 1014.9 1014.7 0.0
27/04:48am 10.3 8.6 10.0 98 0.2 NW 9 13 5 7 1014.9 1014.7 0.0
27/04:30am 8.8 6.0 8.5 98 0.1 NW 13 13 7 7 1015.1 1014.9 0.0
27/04:00am 9.7 7.9 9.4 98 0.1 NW 9 13 5 7 1015.2 1015.0 0.0
27/03:30am 9.7 7.9 9.4 98 0.1 NNW 9 11 5 6 1015.4 1015.2 0.0
27/03:00am 9.2 7.2 8.7 97 0.2 N 9 11 5 6 1015.6 1015.4 0.0
27/02:30am 9.6 7.7 9.1 97 0.2 N 9 11 5 6 1015.7 1015.5 0.0
27/02:00am 10.3 8.6 9.7 96 0.3 N 9 9 5 5 1016.0 1015.8 0.0
27/01:30am 10.3 8.5 9.5 95 0.4 N 9 9 5 5 1015.8 1015.6 0.0
27/01:00am 10.7 9.0 9.9 95 0.4 N 9 11 5 6 1016.2 1016.0 0.0
27/12:30am 10.9 9.8 9.8 93 0.6 N 6 9 3 5 1016.2 1016.0 0.0
27/12:00am 11.3 10.0 9.9 91 0.7 NNW 7 9 4 5 1016.2 1016.0 0.0
 
Date/Time
EDT
Temp
°C
App
Temp
°C
Dew
Point
°C
Rel
Hum
%
Delta-T
°C
Wind Press
QNH
hPa
Press
MSL
hPa
Rain since
9am
mm
Dir  Spd
km/h
Gust
km/h
Spd
kts
Gust
kts
26/11:30pm 13.0 12.2 11.2 89 1.0 W 6 7 3 4 1017.0 1016.8 0.0
26/11:00pm 13.7 12.9 11.2 85 1.3 WSW 6 7 3 4 1016.9 1016.7 0.0
26/10:30pm 14.8 13.3 11.9 83 1.6 WSW 11 13 6 7 1017.0 1016.8 0.0
26/10:00pm 14.7 13.9 11.8 83 1.6 WSW 7 9 4 5 1016.6 1016.4 0.0
26/09:30pm 15.3 14.0 12.4 83 1.6 WSW 11 13 6 7 1016.4 1016.2 0.0
26/09:00pm 15.7 14.0 12.3 80 1.9 SW 13 17 7 9 1016.3 1016.1 0.0
26/08:30pm 16.4 13.7 11.6 73 2.6 SW 17 24 9 13 1016.3 1016.1 0.0
26/08:00pm 16.7 13.8 13.0 79 2.1 SW 20 28 11 15 1015.9 1015.7 0.0
26/07:30pm 17.4 13.9 12.3 72 2.8 SW 22 30 12 16 1015.6 1015.4 0.0
26/07:00pm 18.2 14.3 12.2 68 3.3 SW 24 32 13 17 1015.6 1015.4 0.0
26/06:30pm 17.6 13.2 11.6 68 3.3 SSW 26 35 14 19 1015.7 1015.5 0.0
26/06:00pm 18.3 14.5 11.1 63 3.9 SW 22 28 12 15 1015.3 1015.1 0.0
26/05:30pm 18.9 15.3 10.5 58 4.5 SW 20 26 11 14 1014.8 1014.6 0.0
26/05:00pm 18.6 14.5 10.2 58 4.5 SW 22 30 12 16 1015.2 1015.0 0.0
26/04:30pm 18.4 13.9 10.0 58 4.5 SW 24 32 13 17 1015.1 1014.9 0.0
26/04:00pm 18.8 13.5 11.4 62 4.1 SW 30 37 16 20 1015.4 1015.2 0.0
26/03:30pm 19.7 14.5 11.5 59 4.5 WSW 30 43 16 23 1015.5 1015.3 0.0
26/03:00pm 18.6 13.3 12.6 68 3.4 SW 32 37 17 20 1015.5 1015.3 0.0
26/02:30pm 19.6 14.3 12.6 64 3.9 WSW 32 44 17 24 1015.6 1015.4 0.0

Other formats

Comma delimited format used in spreadsheet applications
http://www.bom.gov.au/fwo/IDV60801/IDV60801.94837.axf

JavaScript Object Notation format (JSON) in row-major order
http://www.bom.gov.au/fwo/IDV60801/IDV60801.94837.json

Data quality

Most of these data are generated automatically and are frequently updated. Quality checks on data are not normally performed. It is possible for incorrect values to appear. Refer to information at About Latest Weather Observations and please check the disclaimer before using these data.